Time;durP1;ratioP1;P1;durP2;ratioP2;P2;SDS_P1;SDS_P2;PMS_P1;PMS_P2;Temp;Humidity;BMP_temperature;BMP_pressure;BME280_temperature;BME280_humidity;BME280_pressure;Samples;Min_cycle;Max_cycle;Signal;HPM_P1;HPM_P2
2021/12/12 00:02:20;;;;;;;25.67;14.23;;;;;;;;;;6241761;28;20049;-68
2021/12/12 00:05:26;;;;;;;26.63;13.60;;;;;;;;;;6241909;28;20374;-68
2021/12/12 00:08:30;;;;;;;26.02;12.82;;;;;;;;;;6242542;28;20435;-68
2021/12/12 00:11:34;;;;;;;27.55;14.05;;;;;;;;;;6241452;28;20514;-68
2021/12/12 00:14:37;;;;;;;24.48;13.82;;;;;;;;;;6242469;28;20044;-68
2021/12/12 00:17:44;;;;;;;25.77;13.45;;;;;;;;;;6245687;28;20080;-68
2021/12/12 00:20:52;;;;;;;27.38;14.15;;;;;;;;;;6246751;28;20060;-68
2021/12/12 00:23:57;;;;;;;27.70;13.13;;;;;;;;;;6248133;28;20057;-68
2021/12/12 00:27:00;;;;;;;27.52;14.70;;;;;;;;;;6246550;28;20053;-68
2021/12/12 00:30:04;;;;;;;28.20;13.77;;;;;;;;;;6246353;28;20053;-68
2021/12/12 00:33:07;;;;;;;27.20;13.88;;;;;;;;;;6247225;28;20558;-67
2021/12/12 00:36:11;;;;;;;25.05;12.80;;;;;;;;;;6245587;28;20037;-68
2021/12/12 00:39:16;;;;;;;;;;;;;;;;;;6245882;28;20041;-68
2021/12/12 00:42:23;;;;;;;26.73;13.20;;;;;;;;;;6245405;28;19971;-68
2021/12/12 00:45:29;;;;;;;31.27;14.32;;;;;;;;;;6247089;28;20045;-67
2021/12/12 00:48:34;;;;;;;26.02;13.25;;;;;;;;;;6244743;28;20061;-68
2021/12/12 00:51:39;;;;;;;28.65;13.82;;;;;;;;;;6246394;28;20056;-68
2021/12/12 00:54:45;;;;;;;25.77;13.95;;;;;;;;;;6245729;28;20321;-68
2021/12/12 00:57:53;;;;;;;29.05;14.80;;;;;;;;;;6246554;28;20045;-68
2021/12/12 01:01:02;;;;;;;28.25;14.85;;;;;;;;;;6244792;28;20064;-68
2021/12/12 01:04:08;;;;;;;30.30;15.20;;;;;;;;;;6246260;28;20052;-67
2021/12/12 01:07:13;;;;;;;30.92;15.68;;;;;;;;;;6245442;28;20115;-68
2021/12/12 01:10:20;;;;;;;29.75;16.17;;;;;;;;;;6244213;28;20128;-68
2021/12/12 01:13:25;;;;;;;33.60;16.20;;;;;;;;;;6246804;28;20108;-68
2021/12/12 01:16:33;;;;;;;32.67;15.45;;;;;;;;;;6246533;28;20057;-68
2021/12/12 01:19:37;;;;;;;34.25;16.05;;;;;;;;;;6244358;28;20049;-68
2021/12/12 01:22:41;;;;;;;33.88;15.88;;;;;;;;;;6244392;28;20053;-68
2021/12/12 01:25:47;;;;;;;36.40;17.50;;;;;;;;;;6245774;28;20091;-68
2021/12/12 01:28:54;;;;;;;35.47;16.17;;;;;;;;;;6245180;28;20053;-68
2021/12/12 01:32:00;;;;;;;32.67;14.43;;;;;;;;;;6245480;28;20042;-68
2021/12/12 01:35:13;;;;;;;32.33;17.13;;;;;;;;;;6245602;28;20046;-68
2021/12/12 01:41:48;;;;;;;33.72;17.33;;;;;;;;;;6187635;28;20065;-66
2021/12/12 01:44:57;;;;;;;35.33;17.70;;;;;;;;;;6244826;28;20049;-68
2021/12/12 01:48:02;;;;;;;35.10;17.05;;;;;;;;;;6243898;28;20049;-67
2021/12/12 01:51:07;;;;;;;37.05;18.13;;;;;;;;;;6244526;28;20041;-67
2021/12/12 01:54:11;;;;;;;35.50;17.10;;;;;;;;;;6244112;28;20157;-68
2021/12/12 01:57:16;;;;;;;36.58;17.77;;;;;;;;;;6244781;28;20053;-67
2021/12/12 02:00:24;;;;;;;38.30;17.98;;;;;;;;;;6244858;28;20042;-67
2021/12/12 02:03:30;;;;;;;35.90;16.95;;;;;;;;;;6245304;28;20189;-67
2021/12/12 02:06:34;;;;;;;38.17;17.95;;;;;;;;;;6242836;28;20046;-67
2021/12/12 02:09:38;;;;;;;38.55;18.15;;;;;;;;;;6244768;28;20041;-67
2021/12/12 02:12:41;;;;;;;32.97;16.38;;;;;;;;;;6244964;28;20045;-67
2021/12/12 02:15:50;;;;;;;37.60;18.45;;;;;;;;;;6244421;28;20053;-68
2021/12/12 02:18:55;;;;;;;;;;;;;;;;;;6245059;28;20124;-66
2021/12/12 02:22:09;;;;;;;37.70;16.42;;;;;;;;;;6244247;28;20331;-68
2021/12/12 02:35:23;;;;;;;38.22;18.00;;;;;;;;;;6244015;28;20041;-66
2021/12/12 02:38:27;;;;;;;38.08;18.27;;;;;;;;;;6244482;28;20064;-68
2021/12/12 02:41:35;;;;;;;35.97;17.73;;;;;;;;;;6243876;28;20045;-68
2021/12/12 02:44:40;;;;;;;35.70;16.85;;;;;;;;;;6244180;28;20095;-69
2021/12/12 02:47:45;;;;;;;39.40;17.98;;;;;;;;;;6242589;28;20041;-68
2021/12/12 02:50:49;;;;;;;37.35;17.60;;;;;;;;;;6243988;28;20407;-67
2021/12/12 02:53:55;;;;;;;39.05;17.65;;;;;;;;;;6242094;28;20052;-69
2021/12/12 02:57:00;;;;;;;35.30;16.63;;;;;;;;;;6243819;28;20614;-68
2021/12/12 03:00:06;;;;;;;39.53;17.67;;;;;;;;;;6244032;28;20045;-68
2021/12/12 03:03:09;;;;;;;34.33;15.88;;;;;;;;;;6243551;28;20049;-68
2021/12/12 03:06:15;;;;;;;37.25;17.45;;;;;;;;;;6242088;28;20041;-67
2021/12/12 03:09:20;;;;;;;36.33;17.38;;;;;;;;;;6243957;28;20049;-67
2021/12/12 03:12:30;;;;;;;39.77;17.67;;;;;;;;;;6226404;28;20049;-68
2021/12/12 03:15:38;;;;;;;36.28;16.65;;;;;;;;;;6242720;28;20041;-69
2021/12/12 03:18:44;;;;;;;35.72;15.82;;;;;;;;;;6242086;28;20050;-68
2021/12/12 03:21:49;;;;;;;33.92;15.85;;;;;;;;;;6243422;28;20072;-68
2021/12/12 03:24:52;;;;;;;34.47;16.42;;;;;;;;;;6241471;28;20042;-67
2021/12/12 03:27:57;;;;;;;35.22;15.95;;;;;;;;;;6243309;28;20057;-67
2021/12/12 03:31:05;;;;;;;31.58;16.40;;;;;;;;;;6243044;28;20061;-67
2021/12/12 03:34:09;;;;;;;31.95;16.02;;;;;;;;;;6243407;28;20053;-67
2021/12/12 03:37:14;;;;;;;36.13;16.17;;;;;;;;;;6241100;28;20041;-67
2021/12/12 03:40:19;;;;;;;34.93;16.57;;;;;;;;;;6242989;28;20063;-67
2021/12/12 03:43:24;;;;;;;32.80;16.15;;;;;;;;;;6243396;28;20309;-68
2021/12/12 03:46:28;;;;;;;34.20;16.20;;;;;;;;;;6242376;28;20064;-67
2021/12/12 03:49:32;;;;;;;31.08;14.95;;;;;;;;;;6242733;28;20053;-68
2021/12/12 03:52:35;;;;;;;34.55;15.73;;;;;;;;;;6247872;28;20060;-67
2021/12/12 03:55:39;;;;;;;32.53;15.27;;;;;;;;;;6247117;28;20053;-67
2021/12/12 03:58:46;;;;;;;32.35;15.45;;;;;;;;;;6247726;28;20061;-67
2021/12/12 04:01:51;;;;;;;36.35;16.35;;;;;;;;;;6246434;28;20045;-67
2021/12/12 04:04:57;;;;;;;31.10;16.10;;;;;;;;;;6248125;28;20104;-67
2021/12/12 04:08:00;;;;;;;28.67;14.52;;;;;;;;;;6246917;28;20045;-67
2021/12/12 04:11:04;;;;;;;32.13;14.50;;;;;;;;;;6247580;28;20530;-67
2021/12/12 04:14:10;;;;;;;31.88;15.02;;;;;;;;;;6247562;28;20041;-67
2021/12/12 04:17:16;;;;;;;33.35;16.02;;;;;;;;;;6247928;28;20050;-66
2021/12/12 04:20:24;;;;;;;37.22;17.33;;;;;;;;;;6246672;28;20049;-69
2021/12/12 04:23:28;;;;;;;33.20;15.60;;;;;;;;;;6247312;28;20438;-66
2021/12/12 04:26:32;;;;;;;29.70;14.55;;;;;;;;;;6246088;28;20048;-68
2021/12/12 04:29:38;;;;;;;31.85;16.45;;;;;;;;;;6246549;28;20081;-67
2021/12/12 04:32:42;;;;;;;36.72;16.70;;;;;;;;;;6247584;28;20057;-69
2021/12/12 04:35:45;;;;;;;36.22;17.70;;;;;;;;;;6245881;28;20231;-67
2021/12/12 04:38:48;;;;;;;33.78;15.57;;;;;;;;;;6245531;28;20049;-66
2021/12/12 04:41:52;;;;;;;36.17;16.13;;;;;;;;;;6246706;28;20053;-66
2021/12/12 04:45:07;;;;;;;35.30;16.50;;;;;;;;;;6246747;28;20091;-67
2021/12/12 04:51:37;;;;;;;35.60;15.77;;;;;;;;;;6244978;28;20056;-66
2021/12/12 04:54:44;;;;;;;34.28;15.88;;;;;;;;;;6246609;28;20053;-67
2021/12/12 04:57:50;;;;;;;35.35;16.95;;;;;;;;;;6246386;28;20049;-67
2021/12/12 05:00:59;;;;;;;33.15;15.90;;;;;;;;;;6247442;28;20124;-67
2021/12/12 05:04:10;;;;;;;38.15;17.50;;;;;;;;;;6244353;28;20049;-66
2021/12/12 05:07:16;;;;;;;33.53;15.82;;;;;;;;;;6245105;28;20045;-66
2021/12/12 05:10:24;;;;;;;35.05;15.80;;;;;;;;;;6246540;28;20045;-66
2021/12/12 05:13:31;;;;;;;41.40;17.60;;;;;;;;;;6244889;28;20411;-67
2021/12/12 05:16:39;;;;;;;36.70;17.20;;;;;;;;;;6244679;28;20158;-66
2021/12/12 05:19:46;;;;;;;35.10;16.50;;;;;;;;;;6246307;28;20432;-67
2021/12/12 05:22:50;;;;;;;32.20;14.98;;;;;;;;;;6246257;28;20049;-67
2021/12/12 05:25:57;;;;;;;37.30;16.85;;;;;;;;;;6245376;28;20053;-67
2021/12/12 05:29:04;;;;;;;36.33;16.95;;;;;;;;;;6245868;28;20057;-67
2021/12/12 05:32:10;;;;;;;35.83;16.53;;;;;;;;;;6245766;28;20048;-67
2021/12/12 05:35:15;;;;;;;35.47;16.65;;;;;;;;;;6245100;28;20049;-67
2021/12/12 05:38:18;;;;;;;33.05;15.27;;;;;;;;;;6245255;28;20046;-67
2021/12/12 05:41:24;;;;;;;33.90;14.88;;;;;;;;;;6245514;28;20054;-67
2021/12/12 05:44:29;;;;;;;35.33;16.05;;;;;;;;;;6244547;28;20103;-66
2021/12/12 05:47:34;;;;;;;34.30;16.40;;;;;;;;;;6244638;28;20053;-67
2021/12/12 05:50:38;;;;;;;36.08;16.58;;;;;;;;;;6245307;28;20412;-67
2021/12/12 05:53:42;;;;;;;34.95;15.50;;;;;;;;;;6243877;28;20041;-67
2021/12/12 05:56:47;;;;;;;37.17;15.77;;;;;;;;;;6243841;28;20137;-67
2021/12/12 05:59:50;;;;;;;34.43;14.80;;;;;;;;;;6244961;28;20054;-67
2021/12/12 06:02:55;;;;;;;30.20;14.27;;;;;;;;;;6245299;28;20045;-67
2021/12/12 06:05:59;;;;;;;32.10;14.23;;;;;;;;;;6245314;28;20170;-67
2021/12/12 06:09:05;;;;;;;30.98;14.85;;;;;;;;;;6244466;28;20049;-67
2021/12/12 06:12:09;;;;;;;28.23;14.13;;;;;;;;;;6245088;28;20391;-67
2021/12/12 06:15:17;;;;;;;27.20;13.60;;;;;;;;;;6243306;28;20123;-67
2021/12/12 06:18:22;;;;;;;28.30;13.25;;;;;;;;;;6244525;28;20053;-67
2021/12/12 06:21:28;;;;;;;29.40;13.73;;;;;;;;;;6242879;28;20053;-67
2021/12/12 06:24:35;;;;;;;27.88;13.07;;;;;;;;;;6243101;28;20057;-66
2021/12/12 06:27:38;;;;;;;29.25;13.27;;;;;;;;;;6244868;28;20042;-67
2021/12/12 06:30:44;;;;;;;27.40;13.35;;;;;;;;;;6242428;28;20458;-67
2021/12/12 06:33:51;;;;;;;29.83;12.95;;;;;;;;;;6244519;28;20457;-67
2021/12/12 06:36:54;;;;;;;26.42;12.32;;;;;;;;;;6244190;28;20038;-67
2021/12/12 06:39:57;;;;;;;24.83;12.18;;;;;;;;;;6243811;28;20412;-67
2021/12/12 06:43:02;;;;;;;24.20;11.48;;;;;;;;;;6244347;28;20042;-67
2021/12/12 06:46:06;;;;;;;22.90;11.52;;;;;;;;;;6243998;28;20407;-67
2021/12/12 06:49:11;;;;;;;25.17;11.57;;;;;;;;;;6244116;28;20049;-67
2021/12/12 06:52:15;;;;;;;23.70;12.18;;;;;;;;;;6243031;28;20045;-67
2021/12/12 06:55:22;;;;;;;24.95;11.98;;;;;;;;;;6244009;28;20052;-67
2021/12/12 06:58:27;;;;;;;23.60;11.20;;;;;;;;;;6243795;28;20044;-67
2021/12/12 07:01:31;;;;;;;22.08;11.13;;;;;;;;;;6243646;28;20111;-67
2021/12/12 07:04:37;;;;;;;23.88;11.00;;;;;;;;;;6243707;28;20049;-67
2021/12/12 07:07:41;;;;;;;21.52;10.45;;;;;;;;;;6243462;28;20053;-67
2021/12/12 07:10:46;;;;;;;;;;;;;;;;;;6244392;28;20447;-67
2021/12/12 07:13:51;;;;;;;24.83;10.75;;;;;;;;;;6242873;28;19943;-67
2021/12/12 07:16:57;;;;;;;24.92;10.25;;;;;;;;;;6242993;28;20052;-67
2021/12/12 07:20:02;;;;;;;20.58;10.45;;;;;;;;;;6242919;28;20057;-67
2021/12/12 07:23:05;;;;;;;22.02;10.80;;;;;;;;;;6242709;28;20091;-67
2021/12/12 07:26:10;;;;;;;20.45;10.30;;;;;;;;;;6242198;28;20056;-67
2021/12/12 07:29:13;;;;;;;19.77;9.57;;;;;;;;;;6242760;28;20132;-67
2021/12/12 07:32:19;;;;;;;21.60;10.05;;;;;;;;;;6242309;28;20041;-67
2021/12/12 07:35:24;;;;;;;20.77;9.40;;;;;;;;;;6242502;28;20077;-68
2021/12/12 07:38:31;;;;;;;21.38;9.73;;;;;;;;;;6241969;28;20423;-69
2021/12/12 07:41:34;;;;;;;19.95;9.80;;;;;;;;;;6241805;28;20049;-69
2021/12/12 07:44:40;;;;;;;21.10;10.10;;;;;;;;;;6240995;28;20041;-68
2021/12/12 07:47:43;;;;;;;18.37;9.10;;;;;;;;;;6242980;28;20045;-69
2021/12/12 07:50:51;;;;;;;17.70;9.27;;;;;;;;;;6242651;28;20034;-69
2021/12/12 07:53:57;;;;;;;19.15;8.38;;;;;;;;;;6242898;28;20124;-69
2021/12/12 07:57:04;;;;;;;19.73;8.98;;;;;;;;;;6242277;28;20041;-68
2021/12/12 08:00:09;;;;;;;16.15;9.88;;;;;;;;;;6242553;28;20050;-68
2021/12/12 08:03:15;;;;;;;18.05;9.05;;;;;;;;;;6243000;28;20045;-68
2021/12/12 08:06:20;;;;;;;18.50;8.77;;;;;;;;;;6241195;28;20076;-68
2021/12/12 08:09:23;;;;;;;17.27;8.68;;;;;;;;;;6242614;28;20041;-68
2021/12/12 08:12:28;;;;;;;21.10;9.07;;;;;;;;;;6242382;28;20052;-69
2021/12/12 08:15:32;;;;;;;17.73;8.03;;;;;;;;;;6241278;28;20076;-69
2021/12/12 08:18:35;;;;;;;17.45;8.35;;;;;;;;;;6242723;28;20049;-68
2021/12/12 08:21:42;;;;;;;17.50;8.20;;;;;;;;;;6242445;28;20061;-69
2021/12/12 08:24:47;;;;;;;18.73;8.93;;;;;;;;;;6242708;28;20049;-68
2021/12/12 08:27:52;;;;;;;18.60;9.27;;;;;;;;;;6241810;28;20107;-68
2021/12/12 08:30:55;;;;;;;17.48;8.80;;;;;;;;;;6242365;28;20056;-68
2021/12/12 08:34:01;;;;;;;18.77;8.60;;;;;;;;;;6240933;28;20098;-68
2021/12/12 08:37:06;;;;;;;16.60;7.93;;;;;;;;;;6244400;28;20128;-67
2021/12/12 08:40:11;;;;;;;15.27;8.32;;;;;;;;;;6246612;28;20056;-68
2021/12/12 08:43:15;;;;;;;19.83;9.20;;;;;;;;;;6246907;28;20048;-69
2021/12/12 08:46:19;;;;;;;19.60;9.18;;;;;;;;;;6247159;28;20052;-69
2021/12/12 08:49:24;;;;;;;15.85;7.85;;;;;;;;;;6244665;28;20079;-67
2021/12/12 08:52:34;;;;;;;20.25;9.07;;;;;;;;;;6247694;28;20069;-67
2021/12/12 08:55:42;;;;;;;16.73;8.38;;;;;;;;;;6246526;28;20065;-68
2021/12/12 08:58:46;;;;;;;18.23;8.20;;;;;;;;;;6245201;28;20103;-67
2021/12/12 09:01:51;;;;;;;16.23;7.65;;;;;;;;;;6245253;28;20100;-67
2021/12/12 09:04:56;;;;;;;17.48;7.28;;;;;;;;;;6245040;28;20056;-67
2021/12/12 09:08:06;;;;;;;14.35;7.68;;;;;;;;;;6246819;28;20041;-67
2021/12/12 09:11:12;;;;;;;14.82;7.13;;;;;;;;;;6245382;28;20053;-67
2021/12/12 09:14:20;;;;;;;17.55;8.27;;;;;;;;;;6245131;28;20060;-67
2021/12/12 09:17:23;;;;;;;;;;;;;;;;;;6246343;28;20053;-67
2021/12/12 09:20:33;;;;;;;14.73;6.80;;;;;;;;;;6244422;28;19928;-67
2021/12/12 09:23:39;;;;;;;13.82;6.93;;;;;;;;;;6246511;28;20057;-67
2021/12/12 09:26:45;;;;;;;16.45;8.40;;;;;;;;;;6244323;28;20060;-67
2021/12/12 09:29:48;;;;;;;;;;;;;;;;;;6245563;28;20053;-68
2021/12/12 09:32:55;;;;;;;15.75;6.85;;;;;;;;;;6245216;28;19966;-67
2021/12/12 09:36:01;;;;;;;15.27;7.32;;;;;;;;;;6244811;28;20059;-67
2021/12/12 09:39:09;;;;;;;15.63;6.93;;;;;;;;;;6245462;28;20400;-67
2021/12/12 09:42:20;;;;;;;14.77;7.28;;;;;;;;;;6244168;28;20483;-66
2021/12/12 09:45:41;;;;;;;13.75;6.55;;;;;;;;;;6243881;28;20404;-67
2021/12/12 09:52:27;;;;;;;13.07;6.70;;;;;;;;;;6244926;28;20117;-68
2021/12/12 09:55:37;;;;;;;11.15;5.65;;;;;;;;;;6244220;28;20506;-67
2021/12/12 09:58:44;;;;;;;12.80;6.35;;;;;;;;;;6243021;28;20049;-67
2021/12/12 10:01:52;;;;;;;11.25;5.85;;;;;;;;;;6245375;28;20058;-67
2021/12/12 10:05:04;;;;;;;12.40;5.63;;;;;;;;;;6244946;28;20365;-67
2021/12/12 10:08:10;;;;;;;10.73;5.57;;;;;;;;;;6244728;28;20041;-67
2021/12/12 10:11:20;;;;;;;11.30;5.30;;;;;;;;;;6244299;28;20048;-67
2021/12/12 10:14:28;;;;;;;10.32;5.68;;;;;;;;;;6244745;28;20049;-68
2021/12/12 10:17:35;;;;;;;12.32;6.15;;;;;;;;;;6243622;28;20046;-67
2021/12/12 10:20:45;;;;;;;11.23;5.72;;;;;;;;;;6243844;28;20049;-67
2021/12/12 10:23:55;;;;;;;13.32;6.75;;;;;;;;;;6244938;28;20048;-67
2021/12/12 10:27:08;;;;;;;52.08;27.63;;;;;;;;;;6242858;28;20045;-67
2021/12/12 10:30:14;;;;;;;11.25;5.78;;;;;;;;;;6244350;28;20045;-66
2021/12/12 10:33:20;;;;;;;12.95;5.40;;;;;;;;;;6243757;28;20060;-67
2021/12/12 10:36:27;;;;;;;11.07;5.15;;;;;;;;;;6225235;28;20149;-67
2021/12/12 10:39:33;;;;;;;11.43;5.50;;;;;;;;;;6241674;28;20472;-67
2021/12/12 10:42:43;;;;;;;12.68;6.50;;;;;;;;;;6242071;28;20052;-67
2021/12/12 10:45:50;;;;;;;10.75;5.97;;;;;;;;;;6239642;28;20064;-67
2021/12/12 10:48:58;;;;;;;10.63;4.88;;;;;;;;;;6241094;28;20048;-67
2021/12/12 10:52:04;;;;;;;7.40;4.45;;;;;;;;;;6241303;28;20042;-67
2021/12/12 10:55:10;;;;;;;9.75;5.10;;;;;;;;;;6241024;28;20041;-67
2021/12/12 10:58:16;;;;;;;8.40;4.97;;;;;;;;;;6240639;28;20116;-67
2021/12/12 11:01:21;;;;;;;9.50;5.20;;;;;;;;;;6240122;28;20058;-67
2021/12/12 11:04:31;;;;;;;9.50;5.03;;;;;;;;;;6242125;28;20052;-67
2021/12/12 11:07:37;;;;;;;10.63;5.35;;;;;;;;;;6243254;28;20057;-67
2021/12/12 11:10:42;;;;;;;8.18;4.80;;;;;;;;;;6243624;28;20053;-67
2021/12/12 11:13:50;;;;;;;10.43;5.00;;;;;;;;;;6243907;28;20522;-65
2021/12/12 11:16:57;;;;;;;10.38;4.90;;;;;;;;;;6241313;28;20057;-66
2021/12/12 11:20:03;;;;;;;8.30;4.57;;;;;;;;;;6242052;28;20313;-67
2021/12/12 11:23:09;;;;;;;9.32;4.97;;;;;;;;;;6241021;28;20050;-67
2021/12/12 11:26:16;;;;;;;9.48;5.30;;;;;;;;;;6240563;28;20107;-67
2021/12/12 11:29:25;;;;;;;8.38;4.90;;;;;;;;;;6239916;28;20053;-67
2021/12/12 11:32:29;;;;;;;10.32;5.05;;;;;;;;;;6238987;28;20049;-67
2021/12/12 11:35:37;;;;;;;9.75;4.80;;;;;;;;;;6240373;28;20385;-67
2021/12/12 11:38:45;;;;;;;8.63;4.85;;;;;;;;;;6239909;28;20104;-67
2021/12/12 11:41:57;;;;;;;8.23;4.53;;;;;;;;;;6224133;28;20400;-67
2021/12/12 11:45:07;;;;;;;12.95;5.53;;;;;;;;;;6242772;28;20045;-67
2021/12/12 11:48:16;;;;;;;9.38;4.53;;;;;;;;;;6243029;28;20045;-67
2021/12/12 11:51:23;;;;;;;8.35;5.15;;;;;;;;;;6242116;28;20053;-67
2021/12/12 11:54:33;;;;;;;10.30;4.60;;;;;;;;;;6242916;28;20120;-67
2021/12/12 11:57:41;;;;;;;13.25;5.05;;;;;;;;;;6242685;28;20046;-67
2021/12/12 12:00:49;;;;;;;8.77;4.25;;;;;;;;;;6242444;28;20072;-67
2021/12/12 12:04:13;;;;;;;8.27;4.55;;;;;;;;;;6242495;28;20054;-67
2021/12/12 12:07:19;;;;;;;9.27;4.78;;;;;;;;;;6242858;28;20045;-67
2021/12/12 12:10:27;;;;;;;8.27;5.05;;;;;;;;;;6241324;28;20052;-67
2021/12/12 12:13:44;;;;;;;9.95;5.07;;;;;;;;;;6245903;28;20103;-67
2021/12/12 12:16:51;;;;;;;9.07;5.00;;;;;;;;;;6246401;28;20439;-67
2021/12/12 12:20:05;;;;;;;9.50;5.05;;;;;;;;;;6247768;28;20059;-67
2021/12/12 12:23:17;;;;;;;7.82;4.15;;;;;;;;;;6247781;28;20052;-67
2021/12/12 12:30:05;;;;;;;8.85;4.60;;;;;;;;;;6245766;28;20049;-67
2021/12/12 12:33:36;;;;;;;7.70;4.15;;;;;;;;;;6245893;28;20045;-67
2021/12/12 12:36:54;;;;;;;9.10;4.32;;;;;;;;;;6245488;28;20072;-67
2021/12/12 12:40:15;;;;;;;10.35;5.00;;;;;;;;;;6247012;28;20480;-67
2021/12/12 12:43:48;;;;;;;7.78;3.85;;;;;;;;;;6246155;28;20124;-66
2021/12/12 12:47:10;;;;;;;10.65;4.85;;;;;;;;;;6246821;28;20073;-67
2021/12/12 12:50:40;;;;;;;9.40;4.82;;;;;;;;;;6245504;28;20048;-66
2021/12/12 12:53:55;;;;;;;14.55;7.55;;;;;;;;;;6247139;28;20135;-67
2021/12/12 12:57:07;;;;;;;9.18;4.22;;;;;;;;;;6244926;28;20076;-65
2021/12/12 13:00:12;;;;;;;8.23;4.40;;;;;;;;;;6246341;28;20053;-67
2021/12/12 13:03:27;;;;;;;11.63;4.53;;;;;;;;;;6246574;28;20096;-66
2021/12/12 13:06:59;;;;;;;10.20;4.78;;;;;;;;;;6246673;28;20064;-67
2021/12/12 13:10:05;;;;;;;10.40;4.85;;;;;;;;;;6246093;28;20160;-66
2021/12/12 13:13:12;;;;;;;8.05;4.40;;;;;;;;;;6245997;28;20168;-66
2021/12/12 13:16:16;;;;;;;8.05;4.60;;;;;;;;;;6245970;28;20041;-67
2021/12/12 13:19:25;;;;;;;8.25;4.65;;;;;;;;;;6246288;28;20041;-66
2021/12/12 13:22:30;;;;;;;9.88;4.63;;;;;;;;;;6243013;28;20057;-66
2021/12/12 13:25:33;;;;;;;;;;;;;;;;;;6246482;28;20041;-66
2021/12/12 13:28:52;;;;;;;10.05;4.90;;;;;;;;;;6245752;28;19921;-66
2021/12/12 13:31:59;;;;;;;9.18;4.47;;;;;;;;;;6245444;28;20057;-66
2021/12/12 13:35:05;;;;;;;8.82;4.70;;;;;;;;;;6244066;28;20088;-67
2021/12/12 13:38:08;;;;;;;;;;;;;;;;;;6246315;28;20047;-67
2021/12/12 13:41:15;;;;;;;8.32;4.22;;;;;;;;;;6245745;28;19928;-67
2021/12/12 13:44:36;;;;;;;9.52;5.10;;;;;;;;;;6244736;28;20392;-67
2021/12/12 13:47:43;;;;;;;19.95;9.80;;;;;;;;;;6244206;28;20049;-66
2021/12/12 13:50:52;;;;;;;9.15;4.80;;;;;;;;;;6244970;28;20054;-67
2021/12/12 13:54:05;;;;;;;9.98;4.97;;;;;;;;;;6245101;28;20180;-66
2021/12/12 13:57:31;;;;;;;11.90;5.22;;;;;;;;;;6244781;28;20056;-67
2021/12/12 14:00:39;;;;;;;10.65;5.15;;;;;;;;;;6245393;28;20495;-67
2021/12/12 14:03:46;;;;;;;10.68;4.53;;;;;;;;;;6243826;28;20100;-67
2021/12/12 14:06:52;;;;;;;10.80;4.75;;;;;;;;;;6242700;28;20052;-66
2021/12/12 14:09:57;;;;;;;;;;;;;;;;;;6243290;28;20045;-67
2021/12/12 14:13:05;;;;;;;13.07;4.95;;;;;;;;;;6241684;28;20006;-67
2021/12/12 14:16:11;;;;;;;11.70;5.38;;;;;;;;;;6244215;28;20038;-67
2021/12/12 14:19:17;;;;;;;11.07;5.00;;;;;;;;;;6243926;28;20081;-67
2021/12/12 14:22:24;;;;;;;9.35;5.43;;;;;;;;;;6244667;28;20055;-67
2021/12/12 14:25:27;;;;;;;12.80;5.60;;;;;;;;;;6243813;28;20053;-67
2021/12/12 14:28:33;;;;;;;10.77;5.18;;;;;;;;;;6241572;28;20050;-67
2021/12/12 14:31:44;;;;;;;10.70;5.57;;;;;;;;;;6240741;28;20048;-67
2021/12/12 14:34:51;;;;;;;13.15;5.80;;;;;;;;;;6240187;28;20042;-67
2021/12/12 14:37:55;;;;;;;14.43;5.82;;;;;;;;;;6239712;28;20711;-67
2021/12/12 14:41:02;;;;;;;11.98;6.00;;;;;;;;;;6238508;28;20200;-67
2021/12/12 14:44:06;;;;;;;11.93;6.30;;;;;;;;;;6241936;28;20041;-67
2021/12/12 14:47:13;;;;;;;13.02;6.57;;;;;;;;;;6243747;28;20075;-67
2021/12/12 14:50:18;;;;;;;13.25;6.55;;;;;;;;;;6243480;28;20052;-67
2021/12/12 14:53:22;;;;;;;12.50;5.93;;;;;;;;;;6243703;28;20052;-67
2021/12/12 14:56:27;;;;;;;12.32;6.28;;;;;;;;;;6243583;28;20160;-64
2021/12/12 14:59:33;;;;;;;12.70;6.13;;;;;;;;;;6226719;28;20049;-67
2021/12/12 15:02:36;;;;;;;;;;;;;;;;;;6242037;28;20045;-67
2021/12/12 15:05:44;;;;;;;14.80;6.97;;;;;;;;;;6242601;28;19921;-67
2021/12/12 15:08:49;;;;;;;15.23;7.18;;;;;;;;;;6242257;28;20041;-67
2021/12/12 15:11:54;;;;;;;14.85;7.25;;;;;;;;;;6243172;28;20053;-66
2021/12/12 15:14:58;;;;;;;;;;;;;;;;;;6244302;28;20050;-66
2021/12/12 15:18:03;;;;;;;11.73;6.40;;;;;;;;;;6242007;28;19975;-66
2021/12/12 15:21:11;;;;;;;12.43;6.83;;;;;;;;;;6241983;28;20057;-66
2021/12/12 15:24:15;;;;;;;18.42;8.88;;;;;;;;;;6242564;28;20052;-67
2021/12/12 15:27:23;;;;;;;13.65;7.47;;;;;;;;;;6242190;28;20152;-66
2021/12/12 15:30:34;;;;;;;18.55;6.90;;;;;;;;;;6241870;28;20049;-67
2021/12/12 15:33:39;;;;;;;16.20;7.28;;;;;;;;;;6242868;28;20034;-66
2021/12/12 15:36:55;;;;;;;11.98;6.13;;;;;;;;;;6242880;28;20053;-66
2021/12/12 15:40:09;;;;;;;13.27;7.25;;;;;;;;;;6243431;28;20052;-66
2021/12/12 15:43:14;;;;;;;14.50;6.53;;;;;;;;;;6243056;28;20095;-68
2021/12/12 15:46:19;;;;;;;15.63;7.28;;;;;;;;;;6241923;28;20057;-66
2021/12/12 15:49:28;;;;;;;14.43;6.65;;;;;;;;;;6243013;28;20084;-66
2021/12/12 15:52:34;;;;;;;12.95;5.95;;;;;;;;;;6242664;28;20041;-66
2021/12/12 15:55:39;;;;;;;15.65;7.47;;;;;;;;;;6242976;28;20049;-66
2021/12/12 15:58:47;;;;;;;12.20;6.63;;;;;;;;;;6242474;28;20046;-67
2021/12/12 16:01:54;;;;;;;16.50;8.05;;;;;;;;;;6241790;28;20046;-67
2021/12/12 16:04:59;;;;;;;14.10;7.03;;;;;;;;;;6242677;28;20045;-66
2021/12/12 16:08:10;;;;;;;14.02;6.93;;;;;;;;;;6242227;28;20057;-66
2021/12/12 16:11:21;;;;;;;17.23;7.75;;;;;;;;;;6242729;28;20060;-66
2021/12/12 16:14:26;;;;;;;13.90;7.22;;;;;;;;;;6242442;28;20651;-69
2021/12/12 16:17:50;;;;;;;14.65;7.25;;;;;;;;;;6242626;28;20045;-66
2021/12/12 16:20:54;;;;;;;18.65;7.85;;;;;;;;;;6241612;28;20060;-66
2021/12/12 16:24:00;;;;;;;16.52;7.72;;;;;;;;;;6242716;28;20050;-66
2021/12/12 16:27:08;;;;;;;15.30;7.05;;;;;;;;;;6241608;28;20050;-64
2021/12/12 16:30:15;;;;;;;15.07;7.45;;;;;;;;;;6242504;28;20045;-66
2021/12/12 16:33:21;;;;;;;15.13;7.35;;;;;;;;;;6241958;28;20056;-66
2021/12/12 16:36:27;;;;;;;16.13;7.63;;;;;;;;;;6241761;28;20104;-66
2021/12/12 16:39:34;;;;;;;13.10;7.13;;;;;;;;;;6242480;28;20067;-66
2021/12/12 16:42:42;;;;;;;13.32;7.63;;;;;;;;;;6241874;28;20053;-66
2021/12/12 16:45:47;;;;;;;15.10;7.43;;;;;;;;;;6242654;28;20055;-67
2021/12/12 16:48:52;;;;;;;15.23;8.02;;;;;;;;;;6242443;28;20168;-67
2021/12/12 16:52:00;;;;;;;12.95;6.47;;;;;;;;;;6242111;28;20053;-67
2021/12/12 16:55:10;;;;;;;16.17;7.45;;;;;;;;;;6241799;28;20119;-67
2021/12/12 16:58:18;;;;;;;14.73;6.47;;;;;;;;;;6243743;28;20053;-66
2021/12/12 17:01:23;;;;;;;14.52;7.22;;;;;;;;;;6245187;28;20155;-67
2021/12/12 17:04:29;;;;;;;13.23;6.70;;;;;;;;;;6246066;28;20045;-65
2021/12/12 17:07:32;;;;;;;;;;;;;;;;;;6246971;28;20049;-66
2021/12/12 17:10:41;;;;;;;16.98;7.32;;;;;;;;;;6245163;28;19921;-66
2021/12/12 17:13:44;;;;;;;16.15;7.53;;;;;;;;;;6244970;28;20439;-67
2021/12/12 17:16:50;;;;;;;13.43;6.63;;;;;;;;;;6244493;28;20099;-67
2021/12/12 17:19:55;;;;;;;14.90;7.28;;;;;;;;;;6246364;28;20058;-66
2021/12/12 17:23:01;;;;;;;15.00;6.68;;;;;;;;;;6246084;28;20045;-65
2021/12/12 17:26:09;;;;;;;15.48;7.55;;;;;;;;;;6244847;28;20049;-66
2021/12/12 17:29:21;;;;;;;15.70;7.07;;;;;;;;;;6245138;28;20050;-67
2021/12/12 17:32:47;;;;;;;15.93;6.65;;;;;;;;;;6246012;28;20061;-66
2021/12/12 17:35:54;;;;;;;13.93;6.90;;;;;;;;;;6245443;28;20041;-67
2021/12/12 17:38:59;;;;;;;16.65;8.27;;;;;;;;;;6245126;28;20049;-67
2021/12/12 17:42:44;;;;;;;12.43;7.20;;;;;;;;;;6246010;28;20191;-67
2021/12/12 17:46:07;;;;;;;14.93;7.47;;;;;;;;;;6245534;28;20046;-66
2021/12/12 17:49:36;;;;;;;16.35;7.25;;;;;;;;;;6244019;28;20423;-66
2021/12/12 17:52:54;;;;;;;13.75;7.00;;;;;;;;;;6245359;28;20420;-67
2021/12/12 17:56:00;;;;;;;16.13;7.07;;;;;;;;;;6243322;28;20384;-66
2021/12/12 17:59:08;;;;;;;15.40;6.95;;;;;;;;;;6245554;28;20041;-66
2021/12/12 18:02:15;;;;;;;14.27;7.00;;;;;;;;;;6244977;28;20064;-67
2021/12/12 18:05:21;;;;;;;13.77;7.18;;;;;;;;;;6244563;28;20095;-67
2021/12/12 18:08:42;;;;;;;16.02;7.18;;;;;;;;;;6243306;28;20060;-67
2021/12/12 18:11:48;;;;;;;20.02;7.68;;;;;;;;;;6241448;28;20057;-67
2021/12/12 18:14:58;;;;;;;15.98;7.63;;;;;;;;;;6244624;28;20061;-67
2021/12/12 18:18:31;;;;;;;17.35;7.95;;;;;;;;;;6244465;28;20172;-67
2021/12/12 18:21:36;;;;;;;14.45;7.32;;;;;;;;;;6231394;28;20061;-67
2021/12/12 18:24:42;;;;;;;15.25;7.63;;;;;;;;;;6244839;28;20451;-67
2021/12/12 18:27:46;;;;;;;16.50;8.07;;;;;;;;;;6243007;28;20049;-67
2021/12/12 18:30:58;;;;;;;16.77;7.60;;;;;;;;;;6243797;28;20049;-66
2021/12/12 18:34:04;;;;;;;13.57;7.18;;;;;;;;;;6244847;28;20052;-67
2021/12/12 18:37:09;;;;;;;15.77;7.45;;;;;;;;;;6244256;28;20124;-66
2021/12/12 18:40:16;;;;;;;16.13;7.72;;;;;;;;;;6242755;28;20050;-66
2021/12/12 18:43:21;;;;;;;18.88;8.45;;;;;;;;;;6243645;28;20042;-66
2021/12/12 18:46:27;;;;;;;19.52;7.95;;;;;;;;;;6242881;28;20052;-66
2021/12/12 18:49:34;;;;;;;17.42;8.40;;;;;;;;;;6244446;28;20420;-66
2021/12/12 18:52:42;;;;;;;18.23;7.95;;;;;;;;;;6241853;28;20111;-66